createdAt,value
2023-02-04T00:00:13.032Z,74.85
2023-02-04T00:03:21.513Z,74.90
2023-02-04T00:05:56.590Z,75.02
2023-02-04T00:08:41.497Z,75.06
2023-02-04T00:11:23.794Z,75.18
2023-02-04T00:14:00.982Z,75.28
2023-02-04T00:16:32.453Z,75.34
2023-02-04T00:19:27.054Z,75.41
2023-02-04T00:21:59.694Z,75.43
2023-02-04T00:25:09.143Z,75.58
2023-02-04T00:27:41.642Z,75.64
2023-02-04T00:30:29.424Z,75.67
2023-02-04T00:32:59.597Z,75.87
2023-02-04T00:35:37.441Z,75.65
2023-02-04T00:38:29.298Z,75.60
2023-02-04T00:41:12.915Z,75.49
2023-02-04T00:43:49.197Z,75.31
2023-02-04T00:46:23.524Z,74.92
2023-02-04T00:49:06.224Z,74.85
2023-02-04T00:51:47.325Z,74.78
2023-02-04T00:54:40.322Z,75.10
2023-02-04T00:57:18.290Z,75.20
2023-02-04T01:00:12.329Z,75.47
2023-02-04T01:06:33.404Z,75.80
2023-02-04T01:09:12.560Z,75.95
2023-02-04T01:12:01.087Z,76.30
2023-02-04T01:15:03.086Z,76.62
2023-02-04T01:18:06.497Z,76.51
2023-02-04T01:21:15.132Z,76.69
2023-02-04T01:24:02.611Z,76.95
2023-02-04T01:27:29.070Z,76.94
2023-02-04T01:29:46.219Z,76.96
2023-02-04T01:32:27.433Z,77.19
2023-02-04T01:35:46.302Z,77.14
2023-02-04T01:38:26.619Z,77.30
2023-02-04T01:41:03.154Z,77.23
2023-02-04T01:43:49.164Z,77.41
2023-02-04T01:46:32.724Z,77.52
2023-02-04T01:49:33.267Z,77.57
2023-02-04T01:52:39.641Z,77.62
2023-02-04T01:55:39.857Z,77.68
2023-02-04T01:58:48.441Z,77.81
2023-02-04T02:01:54.371Z,77.88
2023-02-04T02:04:49.269Z,77.93
2023-02-04T02:07:59.622Z,77.94
2023-02-04T02:10:47.935Z,78.13
2023-02-04T02:17:25.767Z,78.22
2023-02-04T02:20:44.664Z,78.12
2023-02-04T02:24:06.586Z,78.22
2023-02-04T02:26:51.932Z,78.14
2023-02-04T02:33:13.950Z,77.88
2023-02-04T02:36:00.183Z,77.95
2023-02-04T02:39:03.078Z,77.83
2023-02-04T02:41:35.083Z,77.54
2023-02-04T02:44:13.604Z,77.53
2023-02-04T02:47:03.358Z,77.53
2023-02-04T02:49:42.713Z,77.39
2023-02-04T02:52:32.767Z,77.34
2023-02-04T02:55:29.246Z,77.44
2023-02-04T02:58:53.532Z,77.41
2023-02-04T03:01:37.367Z,77.37
2023-02-04T03:04:15.658Z,77.37
2023-02-04T03:06:50.253Z,77.38
2023-02-04T03:09:29.580Z,77.07
2023-02-04T03:12:05.072Z,77.10
2023-02-04T03:14:43.692Z,76.94
2023-02-04T03:17:32.191Z,76.89
2023-02-04T03:20:05.759Z,76.79
2023-02-04T03:22:38.338Z,76.62
2023-02-04T03:25:26.660Z,76.71
2023-02-04T03:28:20.638Z,76.63
2023-02-04T03:30:56.853Z,76.58
2023-02-04T03:33:38.158Z,76.52
2023-02-04T03:36:18.085Z,76.47
2023-02-04T03:42:00.719Z,76.40
2023-02-04T03:44:37.909Z,76.28
2023-02-04T03:47:06.699Z,76.16
2023-02-04T03:50:09.837Z,76.04
2023-02-04T03:52:48.692Z,76.05
2023-02-04T03:55:27.497Z,76.05
2023-02-04T03:57:59.357Z,75.96
2023-02-04T04:00:35.915Z,75.87
2023-02-04T04:03:32.284Z,75.78
2023-02-04T04:06:11.012Z,75.82
2023-02-04T04:08:58.695Z,75.98
2023-02-04T04:11:32.378Z,75.80
2023-02-04T04:14:12.914Z,75.60
2023-02-04T04:17:02.458Z,75.53
2023-02-04T04:19:38.168Z,75.29
2023-02-04T04:22:23.380Z,75.21
2023-02-04T04:24:56.853Z,75.11
2023-02-04T04:27:36.773Z,75.14
2023-02-04T04:30:08.365Z,75.11
2023-02-04T04:32:45.410Z,75.15
2023-02-04T04:35:19.956Z,75.10
2023-02-04T04:38:03.682Z,75.01
2023-02-04T04:40:42.084Z,74.97
2023-02-04T04:43:19.316Z,74.90
2023-02-04T04:45:53.612Z,74.71
2023-02-04T04:48:28.922Z,74.70
2023-02-04T04:50:59.186Z,74.70
2023-02-04T04:53:32.508Z,74.63
2023-02-04T04:56:16.918Z,74.47
2023-02-04T04:58:56.683Z,74.46
2023-02-04T05:01:33.790Z,74.44
2023-02-04T05:04:11.545Z,74.48
2023-02-04T05:06:49.552Z,74.39
2023-02-04T05:09:40.860Z,74.46
2023-02-04T05:12:28.083Z,74.44
2023-02-04T05:15:14.180Z,74.36
2023-02-04T05:17:53.320Z,74.36
2023-02-04T05:20:32.469Z,74.43
2023-02-04T05:23:05.949Z,74.36
2023-02-04T05:25:38.812Z,74.26
2023-02-04T05:28:08.915Z,74.31
2023-02-04T05:30:54.422Z,74.20
2023-02-04T05:33:34.367Z,74.21
2023-02-04T05:36:30.665Z,74.22
2023-02-04T05:39:09.534Z,74.19
2023-02-04T05:41:44.310Z,74.18
2023-02-04T05:44:35.351Z,74.17
2023-02-04T05:47:04.821Z,74.16
2023-02-04T05:49:43.902Z,74.21
2023-02-04T05:52:17.247Z,74.16
2023-02-04T05:54:59.921Z,74.24
2023-02-04T05:57:36.872Z,74.19
2023-02-04T06:00:12.557Z,74.12
2023-02-04T06:02:57.006Z,74.04
2023-02-04T06:05:43.891Z,74.14
2023-02-04T06:08:22.632Z,74.13
2023-02-04T06:11:34.618Z,74.10
2023-02-04T06:14:34.923Z,74.07
2023-02-04T06:17:09.569Z,74.04
2023-02-04T06:20:22.837Z,73.93
2023-02-04T06:23:27.985Z,73.94
2023-02-04T06:26:05.607Z,74.01
2023-02-04T06:28:42.066Z,73.93
2023-02-04T06:31:27.364Z,73.88
2023-02-04T06:34:00.677Z,73.95
2023-02-04T06:36:35.492Z,73.90
2023-02-04T06:39:13.914Z,73.99
2023-02-04T06:41:49.179Z,73.92
2023-02-04T06:44:22.820Z,73.83
2023-02-04T06:46:52.211Z,73.84
2023-02-04T06:49:29.110Z,73.87
2023-02-04T06:52:03.564Z,73.84
2023-02-04T06:54:52.380Z,73.88
2023-02-04T06:58:07.466Z,74.04
2023-02-04T07:00:38.958Z,74.02
2023-02-04T07:03:12.848Z,73.80
2023-02-04T07:05:41.137Z,73.78
2023-02-04T07:08:09.548Z,73.92
2023-02-04T07:10:39.075Z,73.95
2023-02-04T07:13:07.385Z,73.89
2023-02-04T07:15:36.912Z,73.84
2023-02-04T07:18:05.268Z,73.83
2023-02-04T07:20:37.942Z,73.89
2023-02-04T07:23:08.597Z,74.04
2023-02-04T07:25:38.393Z,74.16
2023-02-04T07:28:06.778Z,74.19
2023-02-04T07:30:35.303Z,74.18
2023-02-04T07:33:04.187Z,74.14
2023-02-04T07:35:32.334Z,74.08
2023-02-04T07:38:05.048Z,73.97
2023-02-04T07:40:34.425Z,73.85
2023-02-04T07:43:03.255Z,73.46
2023-02-04T07:45:34.072Z,73.36
2023-02-04T07:48:03.426Z,73.58
2023-02-04T07:50:32.266Z,73.66
2023-02-04T07:53:03.882Z,73.53
2023-02-04T07:55:31.965Z,73.59
2023-02-04T07:58:03.000Z,73.39
2023-02-04T08:00:31.972Z,73.28
2023-02-04T08:03:01.298Z,73.14
2023-02-04T08:05:32.797Z,73.07
2023-02-04T08:08:01.529Z,72.85
2023-02-04T08:10:32.610Z,72.60
2023-02-04T08:13:01.094Z,72.18
2023-02-04T08:15:29.185Z,71.96
2023-02-04T08:17:57.705Z,71.90
2023-02-04T08:20:26.497Z,71.95
2023-02-04T08:23:00.088Z,71.89
2023-02-04T08:25:30.634Z,71.79
2023-02-04T08:28:13.146Z,71.57
2023-02-04T08:31:10.645Z,71.71
2023-02-04T08:33:39.762Z,71.50
2023-02-04T08:36:11.048Z,71.14
2023-02-04T08:38:40.753Z,71.00
2023-02-04T08:41:10.460Z,71.05
2023-02-04T08:43:39.550Z,71.05
2023-02-04T08:46:11.481Z,70.93
2023-02-04T08:48:40.044Z,70.86
2023-02-04T08:51:08.697Z,70.78
2023-02-04T08:53:37.354Z,70.90
2023-02-04T08:56:06.918Z,70.89
2023-02-04T08:58:38.331Z,70.88
2023-02-04T09:01:07.103Z,70.77
2023-02-04T09:03:41.910Z,70.53
2023-02-04T09:06:15.763Z,70.24
2023-02-04T09:08:44.298Z,70.20
2023-02-04T09:11:13.208Z,69.90
2023-02-04T09:13:43.199Z,69.75
2023-02-04T09:16:13.312Z,69.82
2023-02-04T09:18:47.941Z,69.92
2023-02-04T09:21:16.112Z,69.82
2023-02-04T09:23:46.115Z,69.89
2023-02-04T09:26:14.893Z,69.92
2023-02-04T09:28:48.588Z,70.09
2023-02-04T09:31:17.900Z,70.24
2023-02-04T09:33:46.503Z,70.12
2023-02-04T09:36:15.396Z,70.23
2023-02-04T09:38:44.178Z,70.22
2023-02-04T09:41:16.558Z,70.18
2023-02-04T09:43:45.905Z,70.20
2023-02-04T09:46:24.305Z,70.68
2023-02-04T09:48:52.640Z,71.05
2023-02-04T09:51:28.091Z,71.29
2023-02-04T09:54:09.896Z,71.16
2023-02-04T09:56:40.431Z,71.31
2023-02-04T09:59:22.303Z,71.47
2023-02-04T10:02:00.846Z,71.47
2023-02-04T10:04:32.872Z,70.53
2023-02-04T10:07:03.541Z,69.53
2023-02-04T10:09:32.753Z,68.55
2023-02-04T10:12:01.214Z,68.02
2023-02-04T10:14:29.379Z,68.06
2023-02-04T10:17:00.969Z,68.10
2023-02-04T10:19:30.627Z,67.80
2023-02-04T10:21:59.328Z,67.67
2023-02-04T10:24:29.980Z,67.82
2023-02-04T10:27:10.649Z,67.84
2023-02-04T10:29:42.121Z,67.46
2023-02-04T10:32:33.630Z,67.31
2023-02-04T10:35:05.786Z,67.41
2023-02-04T10:37:34.491Z,67.83
2023-02-04T10:40:07.603Z,67.74
2023-02-04T10:42:36.701Z,67.73
2023-02-04T10:45:06.326Z,67.62
2023-02-04T10:47:35.656Z,67.50
2023-02-04T10:50:27.691Z,67.50
2023-02-04T10:53:17.465Z,66.84
2023-02-04T10:55:48.467Z,65.71
2023-02-04T10:58:27.334Z,64.66
2023-02-04T11:00:58.139Z,64.94
2023-02-04T11:03:32.825Z,66.75
2023-02-04T11:06:20.835Z,65.82
2023-02-04T11:09:00.474Z,63.11
2023-02-04T11:11:38.022Z,61.44
2023-02-04T11:14:28.619Z,59.29
2023-02-04T11:16:59.946Z,56.79
2023-02-04T11:19:38.316Z,54.38
2023-02-04T11:22:24.856Z,54.76
2023-02-04T11:24:53.027Z,51.73
2023-02-04T11:27:38.313Z,51.73
2023-02-04T11:30:22.796Z,51.35
2023-02-04T11:33:19.830Z,51.38
2023-02-04T11:36:11.632Z,50.63
2023-02-04T11:39:17.210Z,51.35
2023-02-04T11:41:46.977Z,51.96
2023-02-04T11:44:19.623Z,52.93
2023-02-04T11:47:01.341Z,53.09
2023-02-04T11:49:41.147Z,53.13
2023-02-04T11:52:24.756Z,53.53
2023-02-04T11:55:03.844Z,54.16
2023-02-04T11:58:00.606Z,54.99
2023-02-04T12:00:45.808Z,55.64
2023-02-04T12:03:33.800Z,56.31
2023-02-04T12:06:06.143Z,57.13
2023-02-04T12:08:36.976Z,57.32
2023-02-04T12:11:11.326Z,57.56
2023-02-04T12:13:55.028Z,57.79
2023-02-04T12:16:28.174Z,58.33
2023-02-04T12:19:18.472Z,58.65
2023-02-04T12:21:59.001Z,58.88
2023-02-04T12:24:44.653Z,59.33
2023-02-04T12:27:18.919Z,59.68
2023-02-04T12:29:53.660Z,59.86
2023-02-04T12:32:31.261Z,59.78
2023-02-04T12:35:14.357Z,59.75
2023-02-04T12:37:59.949Z,60.01
2023-02-04T12:40:36.872Z,60.25
2023-02-04T12:43:17.380Z,60.50
2023-02-04T12:45:52.296Z,60.51
2023-02-04T12:48:30.664Z,60.34
2023-02-04T12:51:14.155Z,60.15
2023-02-04T12:53:54.716Z,59.95
2023-02-04T12:56:28.700Z,59.96
2023-02-04T12:59:15.869Z,60.30
2023-02-04T13:01:50.017Z,60.53
2023-02-04T13:04:21.988Z,60.44
2023-02-04T13:07:02.239Z,60.63
2023-02-04T13:09:37.459Z,60.69
2023-02-04T13:12:06.314Z,60.75
2023-02-04T13:14:34.667Z,60.82
2023-02-04T13:17:28.617Z,60.66
2023-02-04T13:19:55.426Z,60.76
2023-02-04T13:22:24.813Z,60.86
2023-02-04T13:24:57.697Z,60.86
2023-02-04T13:27:30.759Z,60.85
2023-02-04T13:30:14.225Z,60.89
2023-02-04T13:32:43.185Z,60.90
2023-02-04T13:35:14.391Z,61.05
2023-02-04T13:37:42.431Z,61.04
2023-02-04T13:40:11.489Z,61.15
2023-02-04T13:42:40.511Z,61.15
2023-02-04T13:45:12.749Z,61.24
2023-02-04T13:47:54.463Z,61.13
2023-02-04T13:50:23.141Z,61.08
2023-02-04T13:52:51.577Z,60.89
2023-02-04T13:55:21.218Z,60.93
2023-02-04T13:57:51.878Z,60.90
2023-02-04T14:00:22.968Z,60.93
2023-02-04T14:02:55.897Z,60.80
2023-02-04T14:05:59.074Z,60.82
2023-02-04T14:08:32.357Z,60.97
2023-02-04T14:11:12.763Z,61.17
2023-02-04T14:13:45.604Z,61.03
2023-02-04T14:16:28.200Z,61.05
2023-02-04T14:19:01.991Z,61.11
2023-02-04T14:21:52.851Z,61.26
2023-02-04T14:24:28.155Z,61.33
2023-02-04T14:27:08.494Z,61.48
2023-02-04T14:29:44.779Z,61.40
2023-02-04T14:32:14.811Z,61.63
2023-02-04T14:34:50.994Z,61.67
2023-02-04T14:37:30.937Z,61.77
2023-02-04T14:40:03.482Z,61.91
2023-02-04T14:42:46.192Z,61.85
2023-02-04T14:45:23.554Z,61.95
2023-02-04T14:48:06.005Z,62.06
2023-02-04T14:50:43.945Z,61.92
2023-02-04T14:53:16.905Z,61.91
2023-02-04T14:55:57.520Z,61.77
2023-02-04T14:58:33.067Z,61.77
2023-02-04T15:01:02.312Z,61.60
2023-02-04T15:03:31.194Z,61.49
2023-02-04T15:05:59.890Z,61.53
2023-02-04T15:08:47.062Z,61.49
2023-02-04T15:15:38.370Z,61.49
2023-02-04T15:18:35.292Z,61.63
2023-02-04T15:21:39.206Z,61.83
2023-02-04T15:29:04.322Z,62.15
2023-02-04T15:38:49.442Z,62.43
2023-02-04T15:41:18.768Z,62.70
2023-02-04T15:44:04.963Z,62.79
2023-02-04T15:46:37.829Z,62.93
2023-02-04T15:49:09.197Z,63.07
2023-02-04T15:51:43.081Z,63.30
2023-02-04T15:54:18.354Z,63.30
2023-02-04T15:56:57.267Z,63.35
2023-02-04T15:59:29.778Z,63.53
2023-02-04T16:02:07.952Z,63.66
2023-02-04T16:05:02.874Z,63.82
2023-02-04T16:07:54.341Z,64.03
2023-02-04T16:10:54.466Z,64.28
2023-02-04T16:18:05.362Z,64.79
2023-02-04T16:21:17.513Z,65.26
2023-02-04T16:23:55.367Z,65.73
2023-02-04T16:26:44.421Z,65.79
2023-02-04T16:29:22.385Z,65.50
2023-02-04T16:32:01.574Z,65.41
2023-02-04T16:34:48.087Z,65.44
2023-02-04T16:37:31.794Z,65.49
2023-02-04T16:40:08.758Z,65.48
2023-02-04T16:42:55.455Z,65.35
2023-02-04T16:45:35.356Z,65.40
2023-02-04T16:48:05.352Z,65.38
2023-02-04T16:50:42.366Z,65.45
2023-02-04T16:53:25.853Z,65.56
2023-02-04T16:56:14.513Z,65.60
2023-02-04T16:59:38.342Z,65.58
2023-02-04T17:02:41.970Z,65.71
2023-02-04T17:09:17.606Z,65.67
2023-02-04T17:12:08.223Z,65.77
2023-02-04T17:15:11.479Z,65.75
2023-02-04T17:18:32.552Z,65.72
2023-02-04T17:22:04.394Z,66.01
2023-02-04T17:25:29.452Z,66.07
2023-02-04T17:28:31.824Z,66.17
2023-02-04T17:31:37.509Z,66.31
2023-02-04T17:34:35.306Z,66.23
2023-02-04T17:37:34.645Z,66.29
2023-02-04T17:40:24.737Z,66.24
2023-02-04T17:43:24.031Z,66.24
2023-02-04T17:46:07.202Z,66.22
2023-02-04T17:49:10.858Z,66.21
2023-02-04T17:52:16.459Z,66.25
2023-02-04T17:55:02.908Z,66.26
2023-02-04T17:58:00.205Z,66.22
2023-02-04T18:02:43.545Z,66.32
2023-02-04T18:09:07.572Z,66.40
2023-02-04T18:11:55.777Z,66.35
2023-02-04T18:14:59.981Z,66.26
2023-02-04T18:17:50.892Z,66.13
2023-02-04T18:20:45.565Z,66.19
2023-02-04T18:24:49.530Z,66.05
2023-02-04T18:27:37.272Z,66.14
2023-02-04T18:30:51.890Z,66.15
2023-02-04T18:33:47.343Z,66.25
2023-02-04T18:36:45.179Z,66.26
2023-02-04T18:39:44.956Z,66.24
2023-02-04T18:42:37.416Z,66.40
2023-02-04T18:49:42.778Z,66.50
2023-02-04T18:52:37.333Z,66.54
2023-02-04T18:55:55.014Z,66.58
2023-02-04T18:59:01.904Z,66.74
2023-02-04T19:01:42.516Z,66.69
2023-02-04T19:04:39.583Z,66.79
2023-02-04T19:07:41.671Z,66.91
2023-02-04T19:11:18.764Z,66.87
2023-02-04T19:15:10.265Z,67.01
2023-02-04T19:18:37.178Z,67.34
2023-02-04T19:22:21.459Z,67.42
2023-02-04T19:26:34.856Z,67.47
2023-02-04T19:29:59.390Z,67.69
2023-02-04T19:33:00.580Z,67.80
2023-02-04T19:35:49.007Z,67.88
2023-02-04T19:38:47.412Z,67.93
2023-02-04T19:41:49.666Z,67.99
2023-02-04T19:44:43.757Z,68.01
2023-02-04T19:48:16.359Z,68.11
2023-02-04T19:50:58.918Z,68.23
2023-02-04T19:53:42.708Z,68.25
2023-02-04T19:57:01.796Z,68.30
2023-02-04T19:59:44.235Z,68.36
2023-02-04T20:02:38.352Z,68.47
2023-02-04T20:05:20.530Z,68.51
2023-02-04T20:07:55.582Z,68.42
2023-02-04T20:10:31.687Z,68.53
2023-02-04T20:13:20.226Z,68.51
2023-02-04T20:16:12.460Z,68.61
2023-02-04T20:19:05.617Z,68.68
2023-02-04T20:22:08.364Z,68.66
2023-02-04T20:25:04.488Z,68.69
2023-02-04T20:28:24.836Z,68.71
2023-02-04T20:37:02.777Z,69.06
2023-02-04T20:40:54.244Z,69.18
2023-02-04T21:25:35.480Z,69.68
2023-02-04T21:28:20.161Z,69.45
2023-02-04T21:31:16.963Z,69.47
2023-02-04T21:35:13.266Z,69.33
2023-02-04T21:38:41.161Z,69.47
2023-02-04T21:47:20.483Z,70.11
2023-02-04T21:50:12.450Z,69.82
2023-02-04T21:53:09.395Z,69.80
2023-02-04T21:55:51.397Z,69.78
2023-02-04T21:59:05.362Z,69.87
2023-02-04T22:02:08.252Z,69.77
2023-02-04T22:05:18.283Z,69.80
2023-02-04T22:08:18.142Z,69.86
2023-02-04T22:11:01.279Z,69.96
2023-02-04T22:14:04.992Z,69.73
2023-02-04T22:17:08.589Z,69.62
2023-02-04T22:20:57.343Z,69.68
2023-02-04T22:23:59.007Z,69.60
2023-02-04T22:27:08.372Z,69.77
2023-02-04T22:30:10.758Z,69.80
2023-02-04T22:33:27.866Z,69.86
2023-02-04T23:01:30.735Z,69.53
2023-02-04T23:10:27.947Z,69.61
2023-02-04T23:13:28.428Z,69.67
2023-02-04T23:16:13.767Z,69.35
2023-02-04T23:19:29.429Z,69.39
2023-02-04T23:22:34.357Z,69.30
2023-02-04T23:25:28.594Z,69.27
2023-02-04T23:28:20.324Z,69.26
2023-02-04T23:31:46.264Z,69.19
2023-02-04T23:34:44.062Z,69.20
2023-02-04T23:37:18.004Z,69.19
2023-02-04T23:40:15.710Z,69.21
2023-02-04T23:43:11.029Z,69.15
2023-02-04T23:45:59.024Z,69.15
2023-02-04T23:49:01.011Z,69.07
2023-02-04T23:51:48.103Z,69.10
2023-02-04T23:54:42.486Z,69.11
